sensor_id;sensor_type;location;lat;lon;timestamp;P1;durP1;ratioP1;P2;durP2;ratioP2
78416;SDS011;67715;46.170;6.140;2023-04-25T00:02:08;4.17;;;2.20;;
78416;SDS011;67715;46.170;6.140;2023-04-25T00:04:33;4.07;;;2.80;;
78416;SDS011;67715;46.170;6.140;2023-04-25T00:06:59;4.27;;;2.17;;
78416;SDS011;67715;46.170;6.140;2023-04-25T00:09:26;6.40;;;2.50;;
78416;SDS011;67715;46.170;6.140;2023-04-25T00:11:52;4.35;;;2.58;;
78416;SDS011;67715;46.170;6.140;2023-04-25T00:14:17;4.70;;;2.60;;
78416;SDS011;67715;46.170;6.140;2023-04-25T00:16:43;4.43;;;2.60;;
78416;SDS011;67715;46.170;6.140;2023-04-25T00:19:08;5.80;;;2.83;;
78416;SDS011;67715;46.170;6.140;2023-04-25T00:21:34;4.95;;;2.90;;
78416;SDS011;67715;46.170;6.140;2023-04-25T00:24:00;3.35;;;2.60;;
78416;SDS011;67715;46.170;6.140;2023-04-25T00:26:25;3.90;;;2.93;;
78416;SDS011;67715;46.170;6.140;2023-04-25T00:28:51;7.53;;;2.80;;
78416;SDS011;67715;46.170;6.140;2023-04-25T00:31:17;4.67;;;2.70;;
78416;SDS011;67715;46.170;6.140;2023-04-25T00:33:42;5.25;;;2.58;;
78416;SDS011;67715;46.170;6.140;2023-04-25T00:36:07;7.23;;;3.00;;
78416;SDS011;67715;46.170;6.140;2023-04-25T00:38:33;3.78;;;2.40;;
78416;SDS011;67715;46.170;6.140;2023-04-25T00:40:58;5.27;;;2.53;;
78416;SDS011;67715;46.170;6.140;2023-04-25T00:43:27;5.75;;;2.88;;
78416;SDS011;67715;46.170;6.140;2023-04-25T00:45:53;5.35;;;2.70;;
78416;SDS011;67715;46.170;6.140;2023-04-25T00:48:19;4.55;;;2.40;;
78416;SDS011;67715;46.170;6.140;2023-04-25T00:50:51;6.45;;;3.28;;
78416;SDS011;67715;46.170;6.140;2023-04-25T00:53:20;5.32;;;2.60;;
78416;SDS011;67715;46.170;6.140;2023-04-25T00:55:46;7.60;;;3.28;;
78416;SDS011;67715;46.170;6.140;2023-04-25T00:58:12;5.93;;;3.10;;
78416;SDS011;67715;46.170;6.140;2023-04-25T01:00:38;6.97;;;2.70;;
78416;SDS011;67715;46.170;6.140;2023-04-25T01:03:05;5.90;;;2.92;;
78416;SDS011;67715;46.170;6.140;2023-04-25T01:05:30;4.18;;;2.60;;
78416;SDS011;67715;46.170;6.140;2023-04-25T01:07:56;5.53;;;4.03;;
78416;SDS011;67715;46.170;6.140;2023-04-25T01:10:21;5.15;;;2.95;;
78416;SDS011;67715;46.170;6.140;2023-04-25T01:12:47;5.43;;;2.47;;
78416;SDS011;67715;46.170;6.140;2023-04-25T01:15:12;3.97;;;2.57;;
78416;SDS011;67715;46.170;6.140;2023-04-25T01:17:37;4.10;;;2.73;;
78416;SDS011;67715;46.170;6.140;2023-04-25T01:20:04;4.13;;;2.50;;
78416;SDS011;67715;46.170;6.140;2023-04-25T01:22:31;4.97;;;2.72;;
78416;SDS011;67715;46.170;6.140;2023-04-25T01:24:56;6.65;;;3.55;;
78416;SDS011;67715;46.170;6.140;2023-04-25T01:27:22;3.58;;;2.63;;
78416;SDS011;67715;46.170;6.140;2023-04-25T01:29:48;5.10;;;3.08;;
78416;SDS011;67715;46.170;6.140;2023-04-25T01:32:13;6.85;;;3.28;;
78416;SDS011;67715;46.170;6.140;2023-04-25T01:34:39;6.35;;;3.03;;
78416;SDS011;67715;46.170;6.140;2023-04-25T01:37:04;7.57;;;3.72;;
78416;SDS011;67715;46.170;6.140;2023-04-25T01:39:29;5.63;;;3.27;;
78416;SDS011;67715;46.170;6.140;2023-04-25T01:41:55;7.05;;;3.47;;
78416;SDS011;67715;46.170;6.140;2023-04-25T01:44:20;6.82;;;3.40;;
78416;SDS011;67715;46.170;6.140;2023-04-25T01:46:46;5.40;;;3.60;;
78416;SDS011;67715;46.170;6.140;2023-04-25T01:49:11;3.97;;;3.23;;
78416;SDS011;67715;46.170;6.140;2023-04-25T01:51:36;6.53;;;3.77;;
78416;SDS011;67715;46.170;6.140;2023-04-25T01:54:02;5.63;;;3.53;;
78416;SDS011;67715;46.170;6.140;2023-04-25T01:56:31;7.45;;;4.07;;
78416;SDS011;67715;46.170;6.140;2023-04-25T01:58:57;6.13;;;3.53;;
78416;SDS011;67715;46.170;6.140;2023-04-25T02:01:23;7.50;;;3.90;;
78416;SDS011;67715;46.170;6.140;2023-04-25T02:03:48;5.77;;;3.60;;
78416;SDS011;67715;46.170;6.140;2023-04-25T02:06:13;6.37;;;3.63;;
78416;SDS011;67715;46.170;6.140;2023-04-25T02:08:39;8.10;;;3.47;;
78416;SDS011;67715;46.170;6.140;2023-04-25T02:11:04;4.75;;;3.35;;
78416;SDS011;67715;46.170;6.140;2023-04-25T02:13:29;6.80;;;3.50;;
78416;SDS011;67715;46.170;6.140;2023-04-25T02:15:55;5.60;;;3.83;;
78416;SDS011;67715;46.170;6.140;2023-04-25T02:18:20;6.17;;;3.20;;
78416;SDS011;67715;46.170;6.140;2023-04-25T02:20:46;7.82;;;3.60;;
78416;SDS011;67715;46.170;6.140;2023-04-25T02:23:11;6.43;;;3.75;;
78416;SDS011;67715;46.170;6.140;2023-04-25T02:25:36;6.67;;;3.73;;
78416;SDS011;67715;46.170;6.140;2023-04-25T02:28:02;5.03;;;3.40;;
78416;SDS011;67715;46.170;6.140;2023-04-25T02:30:27;5.45;;;3.15;;
78416;SDS011;67715;46.170;6.140;2023-04-25T02:32:52;8.07;;;3.60;;
78416;SDS011;67715;46.170;6.140;2023-04-25T02:35:18;5.00;;;3.10;;
78416;SDS011;67715;46.170;6.140;2023-04-25T02:37:43;5.13;;;2.88;;
78416;SDS011;67715;46.170;6.140;2023-04-25T02:40:09;5.37;;;3.13;;
78416;SDS011;67715;46.170;6.140;2023-04-25T02:42:35;9.63;;;3.63;;
78416;SDS011;67715;46.170;6.140;2023-04-25T02:45:00;8.07;;;3.90;;
78416;SDS011;67715;46.170;6.140;2023-04-25T02:47:26;6.95;;;3.33;;
78416;SDS011;67715;46.170;6.140;2023-04-25T02:49:51;8.93;;;4.00;;
78416;SDS011;67715;46.170;6.140;2023-04-25T02:52:16;7.87;;;3.93;;
78416;SDS011;67715;46.170;6.140;2023-04-25T02:54:42;6.10;;;3.70;;
78416;SDS011;67715;46.170;6.140;2023-04-25T02:57:07;7.80;;;4.00;;
78416;SDS011;67715;46.170;6.140;2023-04-25T02:59:33;6.72;;;3.75;;
78416;SDS011;67715;46.170;6.140;2023-04-25T03:01:58;8.05;;;3.83;;
78416;SDS011;67715;46.170;6.140;2023-04-25T03:04:24;6.77;;;4.20;;
78416;SDS011;67715;46.170;6.140;2023-04-25T03:06:50;6.20;;;3.55;;
78416;SDS011;67715;46.170;6.140;2023-04-25T03:09:15;8.85;;;4.18;;
78416;SDS011;67715;46.170;6.140;2023-04-25T03:11:41;8.05;;;3.42;;
78416;SDS011;67715;46.170;6.140;2023-04-25T03:14:06;3.50;;;3.07;;
78416;SDS011;67715;46.170;6.140;2023-04-25T03:16:31;7.57;;;3.83;;
78416;SDS011;67715;46.170;6.140;2023-04-25T03:18:57;5.57;;;3.50;;
78416;SDS011;67715;46.170;6.140;2023-04-25T03:21:22;5.63;;;3.23;;
78416;SDS011;67715;46.170;6.140;2023-04-25T03:23:48;6.40;;;4.00;;
78416;SDS011;67715;46.170;6.140;2023-04-25T03:26:13;6.33;;;3.40;;
78416;SDS011;67715;46.170;6.140;2023-04-25T03:28:38;8.63;;;4.53;;
78416;SDS011;67715;46.170;6.140;2023-04-25T03:31:05;4.70;;;3.42;;
78416;SDS011;67715;46.170;6.140;2023-04-25T03:33:30;10.05;;;3.88;;
78416;SDS011;67715;46.170;6.140;2023-04-25T03:35:56;6.15;;;4.07;;
78416;SDS011;67715;46.170;6.140;2023-04-25T03:38:21;6.13;;;3.67;;
78416;SDS011;67715;46.170;6.140;2023-04-25T03:40:46;9.30;;;4.27;;
78416;SDS011;67715;46.170;6.140;2023-04-25T03:43:11;6.87;;;3.50;;
78416;SDS011;67715;46.170;6.140;2023-04-25T03:45:37;7.77;;;3.97;;
78416;SDS011;67715;46.170;6.140;2023-04-25T03:48:02;7.57;;;4.23;;
78416;SDS011;67715;46.170;6.140;2023-04-25T03:50:28;9.82;;;4.88;;
78416;SDS011;67715;46.170;6.140;2023-04-25T03:52:53;7.88;;;4.15;;
78416;SDS011;67715;46.170;6.140;2023-04-25T03:55:18;7.50;;;4.60;;
78416;SDS011;67715;46.170;6.140;2023-04-25T03:57:44;7.53;;;4.57;;
78416;SDS011;67715;46.170;6.140;2023-04-25T04:00:10;10.37;;;4.77;;
78416;SDS011;67715;46.170;6.140;2023-04-25T04:02:36;11.45;;;5.25;;
78416;SDS011;67715;46.170;6.140;2023-04-25T04:05:02;7.25;;;5.05;;
78416;SDS011;67715;46.170;6.140;2023-04-25T04:07:28;8.48;;;4.38;;
78416;SDS011;67715;46.170;6.140;2023-04-25T04:09:53;5.97;;;4.23;;
78416;SDS011;67715;46.170;6.140;2023-04-25T04:12:19;8.95;;;4.13;;
78416;SDS011;67715;46.170;6.140;2023-04-25T04:14:44;6.03;;;4.32;;
78416;SDS011;67715;46.170;6.140;2023-04-25T04:17:10;8.13;;;4.20;;
78416;SDS011;67715;46.170;6.140;2023-04-25T04:19:35;7.47;;;4.57;;
78416;SDS011;67715;46.170;6.140;2023-04-25T04:22:01;7.60;;;3.92;;
78416;SDS011;67715;46.170;6.140;2023-04-25T04:24:26;5.50;;;3.43;;
78416;SDS011;67715;46.170;6.140;2023-04-25T04:26:51;8.13;;;3.53;;
78416;SDS011;67715;46.170;6.140;2023-04-25T04:29:17;6.45;;;3.67;;
78416;SDS011;67715;46.170;6.140;2023-04-25T04:31:49;4.60;;;3.10;;
78416;SDS011;67715;46.170;6.140;2023-04-25T04:34:15;5.45;;;3.25;;
78416;SDS011;67715;46.170;6.140;2023-04-25T04:36:41;5.78;;;2.90;;
78416;SDS011;67715;46.170;6.140;2023-04-25T04:39:06;6.00;;;2.70;;
78416;SDS011;67715;46.170;6.140;2023-04-25T04:41:34;8.43;;;3.47;;
78416;SDS011;67715;46.170;6.140;2023-04-25T04:43:59;6.90;;;3.43;;
78416;SDS011;67715;46.170;6.140;2023-04-25T04:46:26;7.63;;;2.45;;
78416;SDS011;67715;46.170;6.140;2023-04-25T04:48:52;4.18;;;2.60;;
78416;SDS011;67715;46.170;6.140;2023-04-25T04:51:18;4.53;;;2.75;;
78416;SDS011;67715;46.170;6.140;2023-04-25T04:53:43;3.07;;;2.47;;
78416;SDS011;67715;46.170;6.140;2023-04-25T04:56:09;3.97;;;2.60;;
78416;SDS011;67715;46.170;6.140;2023-04-25T04:58:34;5.40;;;3.30;;
78416;SDS011;67715;46.170;6.140;2023-04-25T05:01:01;6.18;;;2.80;;
78416;SDS011;67715;46.170;6.140;2023-04-25T05:03:26;4.23;;;2.73;;
78416;SDS011;67715;46.170;6.140;2023-04-25T05:05:52;4.65;;;3.10;;
78416;SDS011;67715;46.170;6.140;2023-04-25T05:08:17;8.27;;;4.27;;
78416;SDS011;67715;46.170;6.140;2023-04-25T05:10:42;6.90;;;3.53;;
78416;SDS011;67715;46.170;6.140;2023-04-25T05:13:08;6.03;;;3.13;;
78416;SDS011;67715;46.170;6.140;2023-04-25T05:15:33;6.60;;;3.30;;
78416;SDS011;67715;46.170;6.140;2023-04-25T05:17:58;5.40;;;3.05;;
78416;SDS011;67715;46.170;6.140;2023-04-25T05:20:24;5.15;;;3.20;;
78416;SDS011;67715;46.170;6.140;2023-04-25T05:22:49;5.90;;;3.73;;
78416;SDS011;67715;46.170;6.140;2023-04-25T05:25:14;6.50;;;3.77;;
78416;SDS011;67715;46.170;6.140;2023-04-25T05:27:40;6.47;;;3.47;;
78416;SDS011;67715;46.170;6.140;2023-04-25T05:30:05;6.73;;;3.50;;
78416;SDS011;67715;46.170;6.140;2023-04-25T05:32:31;9.48;;;4.07;;
78416;SDS011;67715;46.170;6.140;2023-04-25T05:34:57;8.15;;;4.47;;
78416;SDS011;67715;46.170;6.140;2023-04-25T05:37:22;10.33;;;3.60;;
78416;SDS011;67715;46.170;6.140;2023-04-25T05:39:47;7.33;;;3.67;;
78416;SDS011;67715;46.170;6.140;2023-04-25T05:42:13;8.37;;;3.80;;
78416;SDS011;67715;46.170;6.140;2023-04-25T05:44:38;6.25;;;3.20;;
78416;SDS011;67715;46.170;6.140;2023-04-25T05:47:04;10.90;;;3.75;;
78416;SDS011;67715;46.170;6.140;2023-04-25T05:49:29;5.50;;;3.92;;
78416;SDS011;67715;46.170;6.140;2023-04-25T05:51:55;5.93;;;3.58;;
78416;SDS011;67715;46.170;6.140;2023-04-25T05:54:20;10.00;;;4.10;;
78416;SDS011;67715;46.170;6.140;2023-04-25T05:56:46;5.33;;;3.70;;
78416;SDS011;67715;46.170;6.140;2023-04-25T05:59:11;6.30;;;3.43;;
78416;SDS011;67715;46.170;6.140;2023-04-25T06:01:36;6.97;;;4.17;;
78416;SDS011;67715;46.170;6.140;2023-04-25T06:04:01;10.10;;;4.20;;
78416;SDS011;67715;46.170;6.140;2023-04-25T06:06:27;7.30;;;4.63;;
78416;SDS011;67715;46.170;6.140;2023-04-25T06:08:52;7.03;;;4.83;;
78416;SDS011;67715;46.170;6.140;2023-04-25T06:11:18;12.70;;;7.68;;
78416;SDS011;67715;46.170;6.140;2023-04-25T06:13:43;9.83;;;7.40;;
78416;SDS011;67715;46.170;6.140;2023-04-25T06:16:08;11.10;;;7.27;;
78416;SDS011;67715;46.170;6.140;2023-04-25T06:18:34;8.70;;;7.13;;
78416;SDS011;67715;46.170;6.140;2023-04-25T06:20:59;8.05;;;5.65;;
78416;SDS011;67715;46.170;6.140;2023-04-25T06:23:24;9.27;;;5.57;;
78416;SDS011;67715;46.170;6.140;2023-04-25T06:25:50;7.70;;;3.87;;
78416;SDS011;67715;46.170;6.140;2023-04-25T06:28:15;10.23;;;4.27;;
78416;SDS011;67715;46.170;6.140;2023-04-25T06:30:40;5.53;;;3.90;;
78416;SDS011;67715;46.170;6.140;2023-04-25T06:33:06;7.82;;;4.75;;
78416;SDS011;67715;46.170;6.140;2023-04-25T06:35:33;7.22;;;3.55;;
78416;SDS011;67715;46.170;6.140;2023-04-25T06:37:58;6.03;;;4.25;;
78416;SDS011;67715;46.170;6.140;2023-04-25T06:40:24;9.52;;;3.90;;
78416;SDS011;67715;46.170;6.140;2023-04-25T06:42:50;7.33;;;3.67;;
78416;SDS011;67715;46.170;6.140;2023-04-25T06:45:15;4.60;;;3.33;;
78416;SDS011;67715;46.170;6.140;2023-04-25T06:47:40;8.53;;;4.30;;
78416;SDS011;67715;46.170;6.140;2023-04-25T06:50:06;6.27;;;3.33;;
78416;SDS011;67715;46.170;6.140;2023-04-25T06:52:31;8.45;;;3.58;;
78416;SDS011;67715;46.170;6.140;2023-04-25T06:54:57;8.52;;;3.20;;
78416;SDS011;67715;46.170;6.140;2023-04-25T06:57:22;6.38;;;3.35;;
78416;SDS011;67715;46.170;6.140;2023-04-25T06:59:48;7.97;;;3.50;;
78416;SDS011;67715;46.170;6.140;2023-04-25T07:02:13;5.70;;;3.77;;
78416;SDS011;67715;46.170;6.140;2023-04-25T07:04:39;7.50;;;4.35;;
78416;SDS011;67715;46.170;6.140;2023-04-25T07:07:04;5.88;;;3.47;;
78416;SDS011;67715;46.170;6.140;2023-04-25T07:09:29;4.85;;;2.85;;
78416;SDS011;67715;46.170;6.140;2023-04-25T07:11:55;8.63;;;3.60;;
78416;SDS011;67715;46.170;6.140;2023-04-25T07:14:21;7.32;;;4.70;;
78416;SDS011;67715;46.170;6.140;2023-04-25T07:16:46;5.45;;;3.15;;
78416;SDS011;67715;46.170;6.140;2023-04-25T07:19:12;5.03;;;2.80;;
78416;SDS011;67715;46.170;6.140;2023-04-25T07:21:37;3.90;;;3.00;;
78416;SDS011;67715;46.170;6.140;2023-04-25T07:24:03;4.17;;;3.00;;
78416;SDS011;67715;46.170;6.140;2023-04-25T07:26:28;5.55;;;3.00;;
78416;SDS011;67715;46.170;6.140;2023-04-25T07:28:53;5.43;;;3.30;;
78416;SDS011;67715;46.170;6.140;2023-04-25T07:31:19;5.20;;;2.35;;
78416;SDS011;67715;46.170;6.140;2023-04-25T07:33:45;6.28;;;2.70;;
78416;SDS011;67715;46.170;6.140;2023-04-25T07:36:10;3.80;;;2.90;;
78416;SDS011;67715;46.170;6.140;2023-04-25T07:38:36;5.53;;;3.47;;
78416;SDS011;67715;46.170;6.140;2023-04-25T07:41:01;7.33;;;3.87;;
78416;SDS011;67715;46.170;6.140;2023-04-25T07:43:27;9.70;;;3.60;;
78416;SDS011;67715;46.170;6.140;2023-04-25T07:45:52;5.73;;;3.30;;
78416;SDS011;67715;46.170;6.140;2023-04-25T07:48:17;5.40;;;2.93;;
78416;SDS011;67715;46.170;6.140;2023-04-25T07:50:45;6.95;;;3.40;;
78416;SDS011;67715;46.170;6.140;2023-04-25T07:53:11;4.10;;;2.63;;
78416;SDS011;67715;46.170;6.140;2023-04-25T07:55:36;4.37;;;2.40;;
78416;SDS011;67715;46.170;6.140;2023-04-25T07:58:04;7.10;;;2.30;;
78416;SDS011;67715;46.170;6.140;2023-04-25T08:00:30;5.32;;;2.30;;
78416;SDS011;67715;46.170;6.140;2023-04-25T08:02:56;6.43;;;2.70;;
78416;SDS011;67715;46.170;6.140;2023-04-25T08:05:21;6.03;;;2.40;;
78416;SDS011;67715;46.170;6.140;2023-04-25T08:07:46;12.23;;;4.07;;
78416;SDS011;67715;46.170;6.140;2023-04-25T08:10:12;3.70;;;2.17;;
78416;SDS011;67715;46.170;6.140;2023-04-25T08:12:37;4.03;;;2.00;;
78416;SDS011;67715;46.170;6.140;2023-04-25T08:15:03;7.07;;;2.83;;
78416;SDS011;67715;46.170;6.140;2023-04-25T08:17:29;3.85;;;2.15;;
78416;SDS011;67715;46.170;6.140;2023-04-25T08:19:54;5.00;;;2.20;;
78416;SDS011;67715;46.170;6.140;2023-04-25T08:22:20;4.57;;;1.85;;
78416;SDS011;67715;46.170;6.140;2023-04-25T08:24:45;5.50;;;2.17;;
78416;SDS011;67715;46.170;6.140;2023-04-25T08:27:11;3.33;;;2.35;;
78416;SDS011;67715;46.170;6.140;2023-04-25T08:29:37;2.80;;;1.70;;
78416;SDS011;67715;46.170;6.140;2023-04-25T08:32:02;3.20;;;2.23;;
78416;SDS011;67715;46.170;6.140;2023-04-25T08:34:27;2.77;;;1.80;;
78416;SDS011;67715;46.170;6.140;2023-04-25T08:36:53;3.92;;;2.50;;
78416;SDS011;67715;46.170;6.140;2023-04-25T08:39:18;3.80;;;2.10;;
78416;SDS011;67715;46.170;6.140;2023-04-25T08:41:43;5.73;;;2.30;;
78416;SDS011;67715;46.170;6.140;2023-04-25T08:44:09;4.82;;;2.88;;
78416;SDS011;67715;46.170;6.140;2023-04-25T08:46:35;6.10;;;2.00;;
78416;SDS011;67715;46.170;6.140;2023-04-25T08:49:03;2.90;;;2.00;;
78416;SDS011;67715;46.170;6.140;2023-04-25T08:51:30;3.35;;;1.80;;
78416;SDS011;67715;46.170;6.140;2023-04-25T08:53:56;4.25;;;1.50;;
78416;SDS011;67715;46.170;6.140;2023-04-25T08:56:30;2.90;;;1.75;;
78416;SDS011;67715;46.170;6.140;2023-04-25T08:58:59;9.05;;;2.83;;
78416;SDS011;67715;46.170;6.140;2023-04-25T09:01:25;4.60;;;2.53;;
78416;SDS011;67715;46.170;6.140;2023-04-25T09:03:51;4.32;;;1.95;;
78416;SDS011;67715;46.170;6.140;2023-04-25T09:06:16;3.47;;;1.93;;
78416;SDS011;67715;46.170;6.140;2023-04-25T09:08:42;5.57;;;2.10;;
78416;SDS011;67715;46.170;6.140;2023-04-25T09:11:08;3.17;;;2.05;;
78416;SDS011;67715;46.170;6.140;2023-04-25T09:13:33;5.67;;;2.37;;
78416;SDS011;67715;46.170;6.140;2023-04-25T09:15:59;8.07;;;4.03;;
78416;SDS011;67715;46.170;6.140;2023-04-25T09:18:34;4.27;;;1.67;;
78416;SDS011;67715;46.170;6.140;2023-04-25T09:21:10;2.08;;;1.50;;
78416;SDS011;67715;46.170;6.140;2023-04-25T09:23:46;4.80;;;1.80;;
78416;SDS011;67715;46.170;6.140;2023-04-25T09:26:16;4.22;;;1.80;;
78416;SDS011;67715;46.170;6.140;2023-04-25T09:28:42;3.25;;;1.60;;
78416;SDS011;67715;46.170;6.140;2023-04-25T09:31:11;3.20;;;1.45;;
78416;SDS011;67715;46.170;6.140;2023-04-25T09:33:37;6.22;;;1.70;;
78416;SDS011;67715;46.170;6.140;2023-04-25T09:36:03;6.03;;;1.83;;
78416;SDS011;67715;46.170;6.140;2023-04-25T09:38:40;8.52;;;2.03;;
78416;SDS011;67715;46.170;6.140;2023-04-25T09:41:07;7.75;;;1.50;;
78416;SDS011;67715;46.170;6.140;2023-04-25T09:43:32;5.85;;;1.58;;
78416;SDS011;67715;46.170;6.140;2023-04-25T09:45:58;5.03;;;1.57;;
78416;SDS011;67715;46.170;6.140;2023-04-25T09:48:24;4.22;;;1.67;;
78416;SDS011;67715;46.170;6.140;2023-04-25T09:53:27;4.10;;;1.77;;
78416;SDS011;67715;46.170;6.140;2023-04-25T09:55:53;2.60;;;1.38;;
78416;SDS011;67715;46.170;6.140;2023-04-25T09:58:18;2.77;;;1.30;;
78416;SDS011;67715;46.170;6.140;2023-04-25T10:00:45;2.20;;;1.17;;
78416;SDS011;67715;46.170;6.140;2023-04-25T10:03:10;2.67;;;0.77;;
78416;SDS011;67715;46.170;6.140;2023-04-25T10:05:36;1.60;;;0.60;;
78416;SDS011;67715;46.170;6.140;2023-04-25T10:08:02;0.68;;;0.32;;
78416;SDS011;67715;46.170;6.140;2023-04-25T10:10:31;0.68;;;0.47;;
78416;SDS011;67715;46.170;6.140;2023-04-25T10:13:01;0.73;;;0.60;;
78416;SDS011;67715;46.170;6.140;2023-04-25T10:15:28;0.75;;;0.30;;
78416;SDS011;67715;46.170;6.140;2023-04-25T10:17:54;1.27;;;0.50;;
78416;SDS011;67715;46.170;6.140;2023-04-25T10:20:19;3.10;;;0.60;;
78416;SDS011;67715;46.170;6.140;2023-04-25T10:22:45;2.50;;;0.60;;
78416;SDS011;67715;46.170;6.140;2023-04-25T10:25:12;1.23;;;0.50;;
78416;SDS011;67715;46.170;6.140;2023-04-25T10:27:38;1.67;;;0.80;;
78416;SDS011;67715;46.170;6.140;2023-04-25T10:30:08;2.10;;;0.80;;
78416;SDS011;67715;46.170;6.140;2023-04-25T10:38:03;1.80;;;0.68;;
78416;SDS011;67715;46.170;6.140;2023-04-25T10:40:30;1.30;;;0.75;;
78416;SDS011;67715;46.170;6.140;2023-04-25T10:48:50;1.02;;;0.68;;
78416;SDS011;67715;46.170;6.140;2023-04-25T10:51:26;5.95;;;1.83;;
78416;SDS011;67715;46.170;6.140;2023-04-25T10:56:21;2.13;;;1.10;;
78416;SDS011;67715;46.170;6.140;2023-04-25T10:58:46;2.78;;;0.77;;
78416;SDS011;67715;46.170;6.140;2023-04-25T11:01:19;1.55;;;0.90;;
78416;SDS011;67715;46.170;6.140;2023-04-25T11:03:46;1.27;;;0.93;;
78416;SDS011;67715;46.170;6.140;2023-04-25T11:09:19;2.03;;;0.80;;
78416;SDS011;67715;46.170;6.140;2023-04-25T11:11:55;1.05;;;0.80;;
78416;SDS011;67715;46.170;6.140;2023-04-25T11:14:21;2.35;;;0.88;;
78416;SDS011;67715;46.170;6.140;2023-04-25T11:16:46;6.70;;;1.80;;
78416;SDS011;67715;46.170;6.140;2023-04-25T11:19:12;2.95;;;1.05;;
78416;SDS011;67715;46.170;6.140;2023-04-25T11:21:37;3.90;;;1.33;;
78416;SDS011;67715;46.170;6.140;2023-04-25T11:24:03;1.83;;;0.75;;
78416;SDS011;67715;46.170;6.140;2023-04-25T11:26:29;1.63;;;0.80;;
78416;SDS011;67715;46.170;6.140;2023-04-25T11:28:58;2.03;;;0.90;;
78416;SDS011;67715;46.170;6.140;2023-04-25T11:31:26;4.65;;;1.27;;
78416;SDS011;67715;46.170;6.140;2023-04-25T11:33:53;4.30;;;1.17;;
78416;SDS011;67715;46.170;6.140;2023-04-25T11:36:19;2.67;;;1.30;;
78416;SDS011;67715;46.170;6.140;2023-04-25T11:38:45;3.08;;;1.08;;
78416;SDS011;67715;46.170;6.140;2023-04-25T11:41:10;4.77;;;1.23;;
78416;SDS011;67715;46.170;6.140;2023-04-25T11:43:36;1.55;;;1.00;;
78416;SDS011;67715;46.170;6.140;2023-04-25T11:46:06;1.60;;;1.13;;
78416;SDS011;67715;46.170;6.140;2023-04-25T11:48:36;3.63;;;1.75;;
78416;SDS011;67715;46.170;6.140;2023-04-25T11:51:03;2.70;;;1.15;;
78416;SDS011;67715;46.170;6.140;2023-04-25T11:53:29;4.20;;;1.23;;
78416;SDS011;67715;46.170;6.140;2023-04-25T11:55:54;1.77;;;0.90;;
78416;SDS011;67715;46.170;6.140;2023-04-25T11:58:21;1.90;;;0.95;;
78416;SDS011;67715;46.170;6.140;2023-04-25T12:00:46;3.88;;;1.00;;
78416;SDS011;67715;46.170;6.140;2023-04-25T12:03:11;2.95;;;1.30;;
78416;SDS011;67715;46.170;6.140;2023-04-25T12:05:37;4.97;;;1.00;;
78416;SDS011;67715;46.170;6.140;2023-04-25T12:08:15;2.85;;;1.00;;
78416;SDS011;67715;46.170;6.140;2023-04-25T12:15:48;2.20;;;1.00;;
78416;SDS011;67715;46.170;6.140;2023-04-25T12:18:13;2.22;;;1.27;;
78416;SDS011;67715;46.170;6.140;2023-04-25T12:20:39;1.98;;;1.15;;
78416;SDS011;67715;46.170;6.140;2023-04-25T12:23:07;2.90;;;0.90;;
78416;SDS011;67715;46.170;6.140;2023-04-25T12:25:40;3.08;;;1.30;;
78416;SDS011;67715;46.170;6.140;2023-04-25T12:30:57;3.85;;;1.00;;
78416;SDS011;67715;46.170;6.140;2023-04-25T12:33:23;2.38;;;1.27;;
78416;SDS011;67715;46.170;6.140;2023-04-25T12:35:52;1.92;;;1.10;;
78416;SDS011;67715;46.170;6.140;2023-04-25T12:38:25;5.93;;;3.25;;
78416;SDS011;67715;46.170;6.140;2023-04-25T12:40:52;2.33;;;1.23;;
78416;SDS011;67715;46.170;6.140;2023-04-25T12:43:17;1.90;;;1.15;;
78416;SDS011;67715;46.170;6.140;2023-04-25T12:45:43;2.15;;;1.20;;
78416;SDS011;67715;46.170;6.140;2023-04-25T12:48:18;3.40;;;1.30;;
78416;SDS011;67715;46.170;6.140;2023-04-25T12:50:44;4.43;;;1.20;;
78416;SDS011;67715;46.170;6.140;2023-04-25T12:53:10;4.38;;;1.30;;
78416;SDS011;67715;46.170;6.140;2023-04-25T12:55:36;1.60;;;1.00;;
78416;SDS011;67715;46.170;6.140;2023-04-25T12:58:01;2.15;;;1.13;;
78416;SDS011;67715;46.170;6.140;2023-04-25T13:00:28;1.40;;;0.90;;
78416;SDS011;67715;46.170;6.140;2023-04-25T13:02:53;2.35;;;1.08;;
78416;SDS011;67715;46.170;6.140;2023-04-25T13:05:19;4.80;;;1.77;;
78416;SDS011;67715;46.170;6.140;2023-04-25T13:07:44;2.50;;;1.30;;
78416;SDS011;67715;46.170;6.140;2023-04-25T13:10:10;1.50;;;1.10;;
78416;SDS011;67715;46.170;6.140;2023-04-25T13:12:35;2.63;;;1.10;;
78416;SDS011;67715;46.170;6.140;2023-04-25T13:15:00;2.55;;;1.08;;
78416;SDS011;67715;46.170;6.140;2023-04-25T13:17:26;2.07;;;0.90;;
78416;SDS011;67715;46.170;6.140;2023-04-25T13:19:51;2.47;;;1.13;;
78416;SDS011;67715;46.170;6.140;2023-04-25T13:22:16;1.83;;;0.77;;
78416;SDS011;67715;46.170;6.140;2023-04-25T13:24:44;1.95;;;0.95;;
78416;SDS011;67715;46.170;6.140;2023-04-25T13:27:09;7.23;;;1.20;;
78416;SDS011;67715;46.170;6.140;2023-04-25T13:29:34;2.70;;;0.93;;
78416;SDS011;67715;46.170;6.140;2023-04-25T13:32:00;4.18;;;1.17;;
78416;SDS011;67715;46.170;6.140;2023-04-25T13:34:26;1.95;;;1.00;;
78416;SDS011;67715;46.170;6.140;2023-04-25T13:36:52;6.55;;;1.17;;
78416;SDS011;67715;46.170;6.140;2023-04-25T13:39:17;23.57;;;2.73;;
78416;SDS011;67715;46.170;6.140;2023-04-25T13:41:42;2.20;;;1.10;;
78416;SDS011;67715;46.170;6.140;2023-04-25T13:44:08;2.00;;;0.87;;
78416;SDS011;67715;46.170;6.140;2023-04-25T13:46:33;2.15;;;1.00;;
78416;SDS011;67715;46.170;6.140;2023-04-25T13:48:58;1.27;;;0.90;;
78416;SDS011;67715;46.170;6.140;2023-04-25T13:51:24;1.13;;;0.80;;
78416;SDS011;67715;46.170;6.140;2023-04-25T13:53:50;2.42;;;1.38;;
78416;SDS011;67715;46.170;6.140;2023-04-25T13:56:16;2.13;;;1.00;;
78416;SDS011;67715;46.170;6.140;2023-04-25T13:58:41;2.27;;;1.00;;
78416;SDS011;67715;46.170;6.140;2023-04-25T14:01:06;2.80;;;1.40;;
78416;SDS011;67715;46.170;6.140;2023-04-25T14:03:32;1.70;;;0.82;;
78416;SDS011;67715;46.170;6.140;2023-04-25T14:05:57;3.43;;;1.23;;
78416;SDS011;67715;46.170;6.140;2023-04-25T14:08:23;5.40;;;1.33;;
78416;SDS011;67715;46.170;6.140;2023-04-25T14:10:48;3.07;;;1.03;;
78416;SDS011;67715;46.170;6.140;2023-04-25T14:13:13;2.13;;;0.90;;
78416;SDS011;67715;46.170;6.140;2023-04-25T14:15:39;2.83;;;1.13;;
78416;SDS011;67715;46.170;6.140;2023-04-25T14:18:04;3.25;;;1.20;;
78416;SDS011;67715;46.170;6.140;2023-04-25T14:20:30;2.05;;;0.95;;
78416;SDS011;67715;46.170;6.140;2023-04-25T14:22:55;5.67;;;2.10;;
78416;SDS011;67715;46.170;6.140;2023-04-25T14:25:23;2.92;;;1.10;;
78416;SDS011;67715;46.170;6.140;2023-04-25T14:27:48;1.10;;;0.80;;
78416;SDS011;67715;46.170;6.140;2023-04-25T14:30:20;7.70;;;1.85;;
78416;SDS011;67715;46.170;6.140;2023-04-25T14:32:46;4.18;;;1.05;;
78416;SDS011;67715;46.170;6.140;2023-04-25T14:35:12;3.45;;;0.90;;
78416;SDS011;67715;46.170;6.140;2023-04-25T14:37:38;3.20;;;1.30;;
78416;SDS011;67715;46.170;6.140;2023-04-25T14:40:04;2.90;;;1.05;;
78416;SDS011;67715;46.170;6.140;2023-04-25T14:42:30;2.03;;;0.77;;
78416;SDS011;67715;46.170;6.140;2023-04-25T14:44:55;2.53;;;1.15;;
78416;SDS011;67715;46.170;6.140;2023-04-25T14:47:21;3.63;;;0.90;;
78416;SDS011;67715;46.170;6.140;2023-04-25T14:49:46;3.50;;;1.20;;
78416;SDS011;67715;46.170;6.140;2023-04-25T14:52:18;2.13;;;0.88;;
78416;SDS011;67715;46.170;6.140;2023-04-25T14:54:44;2.83;;;1.20;;
78416;SDS011;67715;46.170;6.140;2023-04-25T14:57:09;2.00;;;0.90;;
78416;SDS011;67715;46.170;6.140;2023-04-25T14:59:34;2.27;;;1.23;;
78416;SDS011;67715;46.170;6.140;2023-04-25T15:01:59;3.63;;;1.10;;
78416;SDS011;67715;46.170;6.140;2023-04-25T15:04:25;1.90;;;1.37;;
78416;SDS011;67715;46.170;6.140;2023-04-25T15:06:50;1.48;;;0.93;;
78416;SDS011;67715;46.170;6.140;2023-04-25T15:09:16;1.53;;;1.00;;